sensor_id;sensor_type;location;lat;lon;timestamp;P1;durP1;ratioP1;P2;durP2;ratioP2
51758;SDS011;66684;47.568;18.734;2024-03-08T00:00:16;11.93;;;8.57;;
51758;SDS011;66684;47.568;18.734;2024-03-08T00:02:44;13.88;;;8.63;;
51758;SDS011;66684;47.568;18.734;2024-03-08T00:05:11;13.15;;;9.82;;
51758;SDS011;66684;47.568;18.734;2024-03-08T00:07:37;14.70;;;9.98;;
51758;SDS011;66684;47.568;18.734;2024-03-08T00:10:04;13.13;;;9.75;;
51758;SDS011;66684;47.568;18.734;2024-03-08T00:12:31;12.85;;;9.38;;
51758;SDS011;66684;47.568;18.734;2024-03-08T00:14:57;13.73;;;10.25;;
51758;SDS011;66684;47.568;18.734;2024-03-08T00:17:23;14.55;;;9.77;;
51758;SDS011;66684;47.568;18.734;2024-03-08T00:19:49;15.15;;;9.90;;
51758;SDS011;66684;47.568;18.734;2024-03-08T00:22:18;14.02;;;9.75;;
51758;SDS011;66684;47.568;18.734;2024-03-08T00:24:43;14.85;;;10.48;;
51758;SDS011;66684;47.568;18.734;2024-03-08T00:27:09;15.85;;;11.10;;
51758;SDS011;66684;47.568;18.734;2024-03-08T00:29:37;14.05;;;10.55;;
51758;SDS011;66684;47.568;18.734;2024-03-08T00:32:06;15.85;;;10.82;;
51758;SDS011;66684;47.568;18.734;2024-03-08T00:34:36;16.52;;;11.38;;
51758;SDS011;66684;47.568;18.734;2024-03-08T00:37:02;16.40;;;10.60;;
51758;SDS011;66684;47.568;18.734;2024-03-08T00:39:29;17.20;;;11.75;;
51758;SDS011;66684;47.568;18.734;2024-03-08T00:41:55;17.42;;;11.52;;
51758;SDS011;66684;47.568;18.734;2024-03-08T00:44:21;18.55;;;11.50;;
51758;SDS011;66684;47.568;18.734;2024-03-08T00:46:47;17.20;;;11.30;;
51758;SDS011;66684;47.568;18.734;2024-03-08T00:49:13;17.83;;;11.60;;
51758;SDS011;66684;47.568;18.734;2024-03-08T00:51:39;18.95;;;11.93;;
51758;SDS011;66684;47.568;18.734;2024-03-08T00:54:04;20.40;;;13.20;;
51758;SDS011;66684;47.568;18.734;2024-03-08T00:56:30;20.92;;;13.65;;
51758;SDS011;66684;47.568;18.734;2024-03-08T00:58:56;21.52;;;14.00;;
51758;SDS011;66684;47.568;18.734;2024-03-08T01:01:22;25.85;;;15.05;;
51758;SDS011;66684;47.568;18.734;2024-03-08T01:03:48;22.73;;;14.32;;
51758;SDS011;66684;47.568;18.734;2024-03-08T01:06:14;23.40;;;14.35;;
51758;SDS011;66684;47.568;18.734;2024-03-08T01:08:40;22.05;;;14.05;;
51758;SDS011;66684;47.568;18.734;2024-03-08T01:11:08;23.33;;;14.25;;
51758;SDS011;66684;47.568;18.734;2024-03-08T01:13:37;23.10;;;15.02;;
51758;SDS011;66684;47.568;18.734;2024-03-08T01:16:03;25.80;;;16.73;;
51758;SDS011;66684;47.568;18.734;2024-03-08T01:18:29;26.42;;;16.90;;
51758;SDS011;66684;47.568;18.734;2024-03-08T01:20:55;26.75;;;17.23;;
51758;SDS011;66684;47.568;18.734;2024-03-08T01:23:20;27.95;;;16.42;;
51758;SDS011;66684;47.568;18.734;2024-03-08T01:25:46;26.48;;;16.85;;
51758;SDS011;66684;47.568;18.734;2024-03-08T01:28:17;29.48;;;17.52;;
51758;SDS011;66684;47.568;18.734;2024-03-08T01:30:43;28.80;;;17.33;;
51758;SDS011;66684;47.568;18.734;2024-03-08T01:33:10;27.92;;;18.02;;
51758;SDS011;66684;47.568;18.734;2024-03-08T01:35:37;30.15;;;17.92;;
51758;SDS011;66684;47.568;18.734;2024-03-08T01:38:03;29.87;;;17.73;;
51758;SDS011;66684;47.568;18.734;2024-03-08T01:40:30;28.83;;;17.75;;
51758;SDS011;66684;47.568;18.734;2024-03-08T01:42:56;34.30;;;18.08;;
51758;SDS011;66684;47.568;18.734;2024-03-08T01:45:22;33.10;;;19.40;;
51758;SDS011;66684;47.568;18.734;2024-03-08T01:47:48;31.80;;;18.60;;
51758;SDS011;66684;47.568;18.734;2024-03-08T01:50:14;30.98;;;19.50;;
51758;SDS011;66684;47.568;18.734;2024-03-08T01:52:41;29.50;;;18.83;;
51758;SDS011;66684;47.568;18.734;2024-03-08T01:55:07;31.67;;;18.98;;
51758;SDS011;66684;47.568;18.734;2024-03-08T01:57:34;32.50;;;19.50;;
51758;SDS011;66684;47.568;18.734;2024-03-08T02:00:03;31.05;;;18.95;;
51758;SDS011;66684;47.568;18.734;2024-03-08T02:02:31;34.85;;;20.25;;
51758;SDS011;66684;47.568;18.734;2024-03-08T02:04:58;30.40;;;18.92;;
51758;SDS011;66684;47.568;18.734;2024-03-08T02:07:25;31.27;;;19.23;;
51758;SDS011;66684;47.568;18.734;2024-03-08T02:09:51;31.70;;;19.73;;
51758;SDS011;66684;47.568;18.734;2024-03-08T02:12:17;31.45;;;19.55;;
51758;SDS011;66684;47.568;18.734;2024-03-08T02:14:46;32.17;;;18.87;;
51758;SDS011;66684;47.568;18.734;2024-03-08T02:17:12;34.13;;;20.02;;
51758;SDS011;66684;47.568;18.734;2024-03-08T02:19:38;31.48;;;19.62;;
51758;SDS011;66684;47.568;18.734;2024-03-08T02:22:05;31.52;;;18.95;;
51758;SDS011;66684;47.568;18.734;2024-03-08T02:24:32;31.45;;;19.42;;
51758;SDS011;66684;47.568;18.734;2024-03-08T02:26:58;30.73;;;19.02;;
51758;SDS011;66684;47.568;18.734;2024-03-08T02:29:24;33.83;;;20.98;;
51758;SDS011;66684;47.568;18.734;2024-03-08T02:31:51;34.05;;;21.20;;
51758;SDS011;66684;47.568;18.734;2024-03-08T02:34:17;31.27;;;19.92;;
51758;SDS011;66684;47.568;18.734;2024-03-08T02:36:43;35.17;;;20.17;;
51758;SDS011;66684;47.568;18.734;2024-03-08T02:39:09;32.13;;;19.42;;
51758;SDS011;66684;47.568;18.734;2024-03-08T02:41:36;33.90;;;20.02;;
51758;SDS011;66684;47.568;18.734;2024-03-08T02:44:02;28.67;;;18.33;;
51758;SDS011;66684;47.568;18.734;2024-03-08T02:46:29;25.42;;;16.80;;
51758;SDS011;66684;47.568;18.734;2024-03-08T02:48:56;24.45;;;16.85;;
51758;SDS011;66684;47.568;18.734;2024-03-08T02:51:22;25.73;;;15.93;;
51758;SDS011;66684;47.568;18.734;2024-03-08T02:53:47;25.48;;;17.10;;
51758;SDS011;66684;47.568;18.734;2024-03-08T02:56:17;27.67;;;16.98;;
51758;SDS011;66684;47.568;18.734;2024-03-08T02:58:43;27.00;;;16.45;;
51758;SDS011;66684;47.568;18.734;2024-03-08T03:01:14;27.20;;;17.02;;
51758;SDS011;66684;47.568;18.734;2024-03-08T03:03:41;26.27;;;16.85;;
51758;SDS011;66684;47.568;18.734;2024-03-08T03:06:08;28.25;;;17.37;;
51758;SDS011;66684;47.568;18.734;2024-03-08T03:08:33;27.87;;;18.65;;
51758;SDS011;66684;47.568;18.734;2024-03-08T03:10:59;32.97;;;19.83;;
51758;SDS011;66684;47.568;18.734;2024-03-08T03:13:25;31.62;;;19.30;;
51758;SDS011;66684;47.568;18.734;2024-03-08T03:15:51;49.50;;;26.37;;
51758;SDS011;66684;47.568;18.734;2024-03-08T03:18:17;42.53;;;24.83;;
51758;SDS011;66684;47.568;18.734;2024-03-08T03:20:46;47.72;;;26.35;;
51758;SDS011;66684;47.568;18.734;2024-03-08T03:23:13;49.60;;;27.17;;
51758;SDS011;66684;47.568;18.734;2024-03-08T03:25:39;51.75;;;28.75;;
51758;SDS011;66684;47.568;18.734;2024-03-08T03:28:07;56.53;;;29.15;;
51758;SDS011;66684;47.568;18.734;2024-03-08T03:30:33;54.78;;;30.05;;
51758;SDS011;66684;47.568;18.734;2024-03-08T03:32:59;55.72;;;30.23;;
51758;SDS011;66684;47.568;18.734;2024-03-08T03:35:26;49.75;;;29.50;;
51758;SDS011;66684;47.568;18.734;2024-03-08T03:37:53;52.15;;;30.20;;
51758;SDS011;66684;47.568;18.734;2024-03-08T03:40:35;49.85;;;29.27;;
51758;SDS011;66684;47.568;18.734;2024-03-08T03:43:02;52.83;;;29.25;;
51758;SDS011;66684;47.568;18.734;2024-03-08T03:45:28;52.15;;;30.50;;
51758;SDS011;66684;47.568;18.734;2024-03-08T03:47:55;52.00;;;29.02;;
51758;SDS011;66684;47.568;18.734;2024-03-08T03:50:21;53.17;;;30.00;;
51758;SDS011;66684;47.568;18.734;2024-03-08T03:52:47;54.45;;;29.83;;
51758;SDS011;66684;47.568;18.734;2024-03-08T03:55:14;54.30;;;29.50;;
51758;SDS011;66684;47.568;18.734;2024-03-08T03:57:41;52.72;;;29.37;;
51758;SDS011;66684;47.568;18.734;2024-03-08T04:00:07;51.92;;;28.87;;
51758;SDS011;66684;47.568;18.734;2024-03-08T04:02:37;50.35;;;28.90;;
51758;SDS011;66684;47.568;18.734;2024-03-08T04:05:06;54.10;;;28.83;;
51758;SDS011;66684;47.568;18.734;2024-03-08T04:07:34;51.00;;;29.63;;
51758;SDS011;66684;47.568;18.734;2024-03-08T04:10:03;48.40;;;28.98;;
51758;SDS011;66684;47.568;18.734;2024-03-08T04:12:32;44.45;;;27.42;;
51758;SDS011;66684;47.568;18.734;2024-03-08T04:15:00;54.38;;;30.65;;
51758;SDS011;66684;47.568;18.734;2024-03-08T04:17:27;53.50;;;29.08;;
51758;SDS011;66684;47.568;18.734;2024-03-08T04:19:53;51.40;;;28.80;;
51758;SDS011;66684;47.568;18.734;2024-03-08T04:22:19;52.40;;;29.33;;
51758;SDS011;66684;47.568;18.734;2024-03-08T04:24:45;53.63;;;30.52;;
51758;SDS011;66684;47.568;18.734;2024-03-08T04:27:12;53.25;;;29.85;;
51758;SDS011;66684;47.568;18.734;2024-03-08T04:29:39;52.53;;;29.60;;
51758;SDS011;66684;47.568;18.734;2024-03-08T04:32:06;48.85;;;28.60;;
51758;SDS011;66684;47.568;18.734;2024-03-08T04:34:34;54.40;;;29.87;;
51758;SDS011;66684;47.568;18.734;2024-03-08T04:37:00;51.90;;;30.55;;
51758;SDS011;66684;47.568;18.734;2024-03-08T04:39:27;55.15;;;30.85;;
51758;SDS011;66684;47.568;18.734;2024-03-08T04:41:57;58.20;;;31.23;;
51758;SDS011;66684;47.568;18.734;2024-03-08T04:44:28;58.33;;;32.78;;
51758;SDS011;66684;47.568;18.734;2024-03-08T04:46:55;54.35;;;29.90;;
51758;SDS011;66684;47.568;18.734;2024-03-08T04:49:21;61.13;;;30.45;;
51758;SDS011;66684;47.568;18.734;2024-03-08T04:51:48;54.10;;;30.88;;
51758;SDS011;66684;47.568;18.734;2024-03-08T04:54:14;60.53;;;31.83;;
51758;SDS011;66684;47.568;18.734;2024-03-08T04:56:40;59.38;;;31.77;;
51758;SDS011;66684;47.568;18.734;2024-03-08T04:59:05;57.88;;;31.33;;
51758;SDS011;66684;47.568;18.734;2024-03-08T05:01:33;52.17;;;30.23;;
51758;SDS011;66684;47.568;18.734;2024-03-08T05:04:03;56.88;;;30.30;;
51758;SDS011;66684;47.568;18.734;2024-03-08T05:06:29;57.90;;;31.05;;
51758;SDS011;66684;47.568;18.734;2024-03-08T05:08:56;59.03;;;30.62;;
51758;SDS011;66684;47.568;18.734;2024-03-08T05:11:21;59.10;;;31.48;;
51758;SDS011;66684;47.568;18.734;2024-03-08T05:13:47;58.30;;;31.70;;
51758;SDS011;66684;47.568;18.734;2024-03-08T05:16:13;60.22;;;33.97;;
51758;SDS011;66684;47.568;18.734;2024-03-08T05:18:41;58.13;;;33.97;;
51758;SDS011;66684;47.568;18.734;2024-03-08T05:21:07;57.70;;;32.72;;
51758;SDS011;66684;47.568;18.734;2024-03-08T05:23:35;51.63;;;31.25;;
51758;SDS011;66684;47.568;18.734;2024-03-08T05:26:00;57.55;;;32.58;;
51758;SDS011;66684;47.568;18.734;2024-03-08T05:28:26;59.67;;;33.00;;
51758;SDS011;66684;47.568;18.734;2024-03-08T05:30:52;54.38;;;31.23;;
51758;SDS011;66684;47.568;18.734;2024-03-08T05:33:18;60.10;;;31.73;;
51758;SDS011;66684;47.568;18.734;2024-03-08T05:35:44;54.20;;;31.62;;
51758;SDS011;66684;47.568;18.734;2024-03-08T05:38:10;55.53;;;30.40;;
51758;SDS011;66684;47.568;18.734;2024-03-08T05:40:38;57.58;;;33.15;;
51758;SDS011;66684;47.568;18.734;2024-03-08T05:43:04;63.20;;;33.03;;
51758;SDS011;66684;47.568;18.734;2024-03-08T05:45:30;52.67;;;30.15;;
51758;SDS011;66684;47.568;18.734;2024-03-08T05:47:56;55.58;;;30.23;;
51758;SDS011;66684;47.568;18.734;2024-03-08T05:50:22;56.70;;;31.70;;
51758;SDS011;66684;47.568;18.734;2024-03-08T05:52:48;56.45;;;30.10;;
51758;SDS011;66684;47.568;18.734;2024-03-08T05:55:15;57.13;;;31.25;;
51758;SDS011;66684;47.568;18.734;2024-03-08T05:57:41;55.42;;;31.33;;
51758;SDS011;66684;47.568;18.734;2024-03-08T06:00:08;52.67;;;30.90;;
51758;SDS011;66684;47.568;18.734;2024-03-08T06:02:37;61.88;;;32.75;;
51758;SDS011;66684;47.568;18.734;2024-03-08T06:05:12;62.78;;;32.88;;
51758;SDS011;66684;47.568;18.734;2024-03-08T06:07:38;57.28;;;30.70;;
51758;SDS011;66684;47.568;18.734;2024-03-08T06:10:07;56.05;;;30.60;;
51758;SDS011;66684;47.568;18.734;2024-03-08T06:12:38;58.78;;;30.45;;
51758;SDS011;66684;47.568;18.734;2024-03-08T06:15:07;56.97;;;31.80;;
51758;SDS011;66684;47.568;18.734;2024-03-08T06:17:40;60.15;;;31.40;;
51758;SDS011;66684;47.568;18.734;2024-03-08T06:20:07;59.42;;;33.08;;
51758;SDS011;66684;47.568;18.734;2024-03-08T06:22:37;60.12;;;31.33;;
51758;SDS011;66684;47.568;18.734;2024-03-08T06:25:06;59.13;;;32.13;;
51758;SDS011;66684;47.568;18.734;2024-03-08T06:27:33;61.28;;;32.90;;
51758;SDS011;66684;47.568;18.734;2024-03-08T06:29:59;75.03;;;41.17;;
51758;SDS011;66684;47.568;18.734;2024-03-08T06:32:26;73.65;;;43.22;;
51758;SDS011;66684;47.568;18.734;2024-03-08T06:34:51;67.75;;;36.05;;
51758;SDS011;66684;47.568;18.734;2024-03-08T06:37:17;58.20;;;32.15;;
51758;SDS011;66684;47.568;18.734;2024-03-08T06:39:47;62.70;;;31.92;;
51758;SDS011;66684;47.568;18.734;2024-03-08T06:42:14;59.92;;;32.35;;
51758;SDS011;66684;47.568;18.734;2024-03-08T06:44:40;57.47;;;32.13;;
51758;SDS011;66684;47.568;18.734;2024-03-08T06:47:14;56.13;;;31.62;;
51758;SDS011;66684;47.568;18.734;2024-03-08T06:49:43;55.08;;;32.13;;
51758;SDS011;66684;47.568;18.734;2024-03-08T06:52:09;55.72;;;32.22;;
51758;SDS011;66684;47.568;18.734;2024-03-08T06:54:36;57.33;;;31.58;;
51758;SDS011;66684;47.568;18.734;2024-03-08T06:57:03;60.28;;;32.28;;
51758;SDS011;66684;47.568;18.734;2024-03-08T06:59:29;55.95;;;31.62;;
51758;SDS011;66684;47.568;18.734;2024-03-08T07:01:55;57.28;;;31.65;;
51758;SDS011;66684;47.568;18.734;2024-03-08T07:04:21;61.10;;;32.47;;
51758;SDS011;66684;47.568;18.734;2024-03-08T07:06:49;56.42;;;31.92;;
51758;SDS011;66684;47.568;18.734;2024-03-08T07:09:16;57.53;;;31.52;;
51758;SDS011;66684;47.568;18.734;2024-03-08T07:11:45;57.83;;;31.58;;
51758;SDS011;66684;47.568;18.734;2024-03-08T07:14:12;61.28;;;33.33;;
51758;SDS011;66684;47.568;18.734;2024-03-08T07:16:40;59.15;;;32.83;;
51758;SDS011;66684;47.568;18.734;2024-03-08T07:19:07;65.78;;;32.85;;
51758;SDS011;66684;47.568;18.734;2024-03-08T07:21:32;55.50;;;31.87;;
51758;SDS011;66684;47.568;18.734;2024-03-08T07:23:58;60.63;;;33.47;;
51758;SDS011;66684;47.568;18.734;2024-03-08T07:26:24;60.53;;;32.67;;
51758;SDS011;66684;47.568;18.734;2024-03-08T07:28:50;60.72;;;33.08;;
51758;SDS011;66684;47.568;18.734;2024-03-08T07:31:16;57.70;;;31.42;;
51758;SDS011;66684;47.568;18.734;2024-03-08T07:33:51;64.62;;;33.83;;
51758;SDS011;66684;47.568;18.734;2024-03-08T07:36:19;56.83;;;32.65;;
51758;SDS011;66684;47.568;18.734;2024-03-08T07:38:45;63.90;;;32.30;;
51758;SDS011;66684;47.568;18.734;2024-03-08T07:41:14;62.30;;;32.17;;
51758;SDS011;66684;47.568;18.734;2024-03-08T07:43:42;63.70;;;33.10;;
51758;SDS011;66684;47.568;18.734;2024-03-08T07:46:09;62.28;;;33.15;;
51758;SDS011;66684;47.568;18.734;2024-03-08T07:48:36;57.50;;;32.65;;
51758;SDS011;66684;47.568;18.734;2024-03-08T07:51:05;61.85;;;32.17;;
51758;SDS011;66684;47.568;18.734;2024-03-08T07:53:31;64.12;;;33.75;;
51758;SDS011;66684;47.568;18.734;2024-03-08T07:55:57;61.08;;;33.22;;
51758;SDS011;66684;47.568;18.734;2024-03-08T07:58:23;60.33;;;31.80;;
51758;SDS011;66684;47.568;18.734;2024-03-08T08:00:49;61.90;;;31.90;;
51758;SDS011;66684;47.568;18.734;2024-03-08T08:03:15;62.25;;;32.83;;
51758;SDS011;66684;47.568;18.734;2024-03-08T08:05:41;57.38;;;31.40;;
51758;SDS011;66684;47.568;18.734;2024-03-08T08:08:08;59.58;;;31.87;;
51758;SDS011;66684;47.568;18.734;2024-03-08T08:10:36;59.90;;;31.65;;
51758;SDS011;66684;47.568;18.734;2024-03-08T08:13:03;57.90;;;31.87;;
51758;SDS011;66684;47.568;18.734;2024-03-08T08:15:32;66.93;;;33.08;;
51758;SDS011;66684;47.568;18.734;2024-03-08T08:18:00;62.08;;;32.72;;
51758;SDS011;66684;47.568;18.734;2024-03-08T08:20:28;61.53;;;33.05;;
51758;SDS011;66684;47.568;18.734;2024-03-08T08:22:54;61.25;;;33.03;;
51758;SDS011;66684;47.568;18.734;2024-03-08T08:25:21;61.88;;;32.72;;
51758;SDS011;66684;47.568;18.734;2024-03-08T08:27:49;62.28;;;32.85;;
51758;SDS011;66684;47.568;18.734;2024-03-08T08:30:15;61.72;;;33.03;;
51758;SDS011;66684;47.568;18.734;2024-03-08T08:32:41;64.00;;;31.92;;
51758;SDS011;66684;47.568;18.734;2024-03-08T08:35:08;60.38;;;34.33;;
51758;SDS011;66684;47.568;18.734;2024-03-08T08:37:35;57.45;;;32.13;;
51758;SDS011;66684;47.568;18.734;2024-03-08T08:40:04;58.20;;;31.75;;
51758;SDS011;66684;47.568;18.734;2024-03-08T08:42:36;55.13;;;30.83;;
51758;SDS011;66684;47.568;18.734;2024-03-08T08:45:03;55.03;;;29.52;;
51758;SDS011;66684;47.568;18.734;2024-03-08T08:47:34;50.85;;;28.75;;
51758;SDS011;66684;47.568;18.734;2024-03-08T08:50:01;47.53;;;28.12;;
51758;SDS011;66684;47.568;18.734;2024-03-08T08:52:27;51.03;;;29.02;;
51758;SDS011;66684;47.568;18.734;2024-03-08T08:54:54;51.28;;;28.67;;
51758;SDS011;66684;47.568;18.734;2024-03-08T08:57:20;48.65;;;28.45;;
51758;SDS011;66684;47.568;18.734;2024-03-08T08:59:46;53.80;;;31.50;;
51758;SDS011;66684;47.568;18.734;2024-03-08T09:02:12;52.22;;;29.87;;
51758;SDS011;66684;47.568;18.734;2024-03-08T09:04:38;49.83;;;27.80;;
51758;SDS011;66684;47.568;18.734;2024-03-08T09:07:04;53.28;;;29.27;;
51758;SDS011;66684;47.568;18.734;2024-03-08T09:09:32;54.92;;;29.30;;
51758;SDS011;66684;47.568;18.734;2024-03-08T09:11:58;52.88;;;29.35;;
51758;SDS011;66684;47.568;18.734;2024-03-08T09:14:24;51.75;;;27.20;;
51758;SDS011;66684;47.568;18.734;2024-03-08T09:16:51;52.62;;;28.35;;
51758;SDS011;66684;47.568;18.734;2024-03-08T09:19:17;54.97;;;29.63;;
51758;SDS011;66684;47.568;18.734;2024-03-08T09:21:45;55.25;;;29.58;;
51758;SDS011;66684;47.568;18.734;2024-03-08T09:24:11;56.42;;;30.33;;
51758;SDS011;66684;47.568;18.734;2024-03-08T09:26:38;54.10;;;28.80;;
51758;SDS011;66684;47.568;18.734;2024-03-08T09:29:06;54.33;;;28.67;;
51758;SDS011;66684;47.568;18.734;2024-03-08T09:31:32;56.35;;;28.98;;
51758;SDS011;66684;47.568;18.734;2024-03-08T09:33:59;52.10;;;26.65;;
51758;SDS011;66684;47.568;18.734;2024-03-08T09:36:24;54.03;;;28.27;;
51758;SDS011;66684;47.568;18.734;2024-03-08T09:38:50;54.63;;;27.52;;
51758;SDS011;66684;47.568;18.734;2024-03-08T09:41:16;56.22;;;28.08;;
51758;SDS011;66684;47.568;18.734;2024-03-08T09:43:42;58.47;;;29.60;;
51758;SDS011;66684;47.568;18.734;2024-03-08T09:46:09;64.07;;;31.48;;
51758;SDS011;66684;47.568;18.734;2024-03-08T09:48:36;62.92;;;32.28;;
51758;SDS011;66684;47.568;18.734;2024-03-08T09:51:03;73.53;;;33.45;;
51758;SDS011;66684;47.568;18.734;2024-03-08T09:53:30;67.72;;;32.20;;
51758;SDS011;66684;47.568;18.734;2024-03-08T09:55:56;64.80;;;32.63;;
51758;SDS011;66684;47.568;18.734;2024-03-08T09:58:22;63.67;;;31.42;;
51758;SDS011;66684;47.568;18.734;2024-03-08T10:01:00;71.65;;;35.13;;
51758;SDS011;66684;47.568;18.734;2024-03-08T10:03:30;67.28;;;33.22;;
51758;SDS011;66684;47.568;18.734;2024-03-08T10:05:57;63.13;;;30.40;;
51758;SDS011;66684;47.568;18.734;2024-03-08T10:08:26;64.60;;;31.65;;
51758;SDS011;66684;47.568;18.734;2024-03-08T10:10:55;65.87;;;31.87;;
51758;SDS011;66684;47.568;18.734;2024-03-08T10:13:24;64.00;;;31.27;;
51758;SDS011;66684;47.568;18.734;2024-03-08T10:15:54;59.92;;;30.30;;
51758;SDS011;66684;47.568;18.734;2024-03-08T10:18:20;60.90;;;30.37;;
51758;SDS011;66684;47.568;18.734;2024-03-08T10:21:01;57.75;;;29.30;;
51758;SDS011;66684;47.568;18.734;2024-03-08T10:23:29;59.50;;;30.20;;
51758;SDS011;66684;47.568;18.734;2024-03-08T10:25:57;56.67;;;28.33;;
51758;SDS011;66684;47.568;18.734;2024-03-08T10:28:23;54.42;;;28.33;;
51758;SDS011;66684;47.568;18.734;2024-03-08T10:30:50;56.70;;;28.60;;
51758;SDS011;66684;47.568;18.734;2024-03-08T10:33:16;49.00;;;27.60;;
51758;SDS011;66684;47.568;18.734;2024-03-08T10:35:42;51.50;;;26.45;;
51758;SDS011;66684;47.568;18.734;2024-03-08T10:38:08;50.33;;;27.27;;
51758;SDS011;66684;47.568;18.734;2024-03-08T10:40:40;44.55;;;25.80;;
51758;SDS011;66684;47.568;18.734;2024-03-08T10:43:06;49.00;;;26.65;;
51758;SDS011;66684;47.568;18.734;2024-03-08T10:45:43;43.33;;;26.15;;
51758;SDS011;66684;47.568;18.734;2024-03-08T10:48:30;43.70;;;24.27;;
51758;SDS011;66684;47.568;18.734;2024-03-08T10:50:57;44.30;;;24.80;;
51758;SDS011;66684;47.568;18.734;2024-03-08T10:53:30;42.95;;;24.77;;
51758;SDS011;66684;47.568;18.734;2024-03-08T10:55:56;43.53;;;24.58;;
51758;SDS011;66684;47.568;18.734;2024-03-08T10:58:24;49.15;;;27.20;;
51758;SDS011;66684;47.568;18.734;2024-03-08T11:00:54;44.88;;;26.33;;
51758;SDS011;66684;47.568;18.734;2024-03-08T11:06:06;45.70;;;27.45;;
51758;SDS011;66684;47.568;18.734;2024-03-08T11:08:40;45.45;;;25.98;;
51758;SDS011;66684;47.568;18.734;2024-03-08T11:11:22;38.80;;;23.33;;
51758;SDS011;66684;47.568;18.734;2024-03-08T11:13:53;39.60;;;24.17;;
51758;SDS011;66684;47.568;18.734;2024-03-08T11:16:38;42.72;;;25.23;;
51758;SDS011;66684;47.568;18.734;2024-03-08T11:19:07;44.88;;;25.20;;
51758;SDS011;66684;47.568;18.734;2024-03-08T11:22:02;37.70;;;22.77;;
51758;SDS011;66684;47.568;18.734;2024-03-08T11:24:38;37.92;;;22.80;;
51758;SDS011;66684;47.568;18.734;2024-03-08T11:27:05;37.67;;;22.73;;
51758;SDS011;66684;47.568;18.734;2024-03-08T11:29:33;38.80;;;23.00;;
51758;SDS011;66684;47.568;18.734;2024-03-08T11:32:15;40.65;;;23.65;;
51758;SDS011;66684;47.568;18.734;2024-03-08T11:34:48;39.42;;;24.40;;
51758;SDS011;66684;47.568;18.734;2024-03-08T11:37:18;44.25;;;25.58;;
51758;SDS011;66684;47.568;18.734;2024-03-08T11:39:46;41.88;;;24.15;;
51758;SDS011;66684;47.568;18.734;2024-03-08T11:42:14;37.30;;;23.60;;
51758;SDS011;66684;47.568;18.734;2024-03-08T11:44:41;38.65;;;23.05;;
51758;SDS011;66684;47.568;18.734;2024-03-08T11:47:13;42.30;;;24.33;;
51758;SDS011;66684;47.568;18.734;2024-03-08T11:49:40;38.00;;;22.83;;
51758;SDS011;66684;47.568;18.734;2024-03-08T11:52:17;35.67;;;23.02;;
51758;SDS011;66684;47.568;18.734;2024-03-08T11:54:53;39.72;;;22.98;;
51758;SDS011;66684;47.568;18.734;2024-03-08T11:57:23;39.80;;;23.48;;
51758;SDS011;66684;47.568;18.734;2024-03-08T11:59:52;38.30;;;24.52;;
51758;SDS011;66684;47.568;18.734;2024-03-08T12:02:19;37.70;;;24.17;;
51758;SDS011;66684;47.568;18.734;2024-03-08T12:04:45;35.47;;;23.87;;
51758;SDS011;66684;47.568;18.734;2024-03-08T12:07:14;37.88;;;24.45;;
51758;SDS011;66684;47.568;18.734;2024-03-08T12:09:44;40.75;;;26.50;;
51758;SDS011;66684;47.568;18.734;2024-03-08T12:12:44;41.90;;;26.65;;
51758;SDS011;66684;47.568;18.734;2024-03-08T12:15:10;41.97;;;26.50;;
51758;SDS011;66684;47.568;18.734;2024-03-08T12:17:37;45.63;;;27.70;;
51758;SDS011;66684;47.568;18.734;2024-03-08T12:20:13;45.50;;;27.08;;
51758;SDS011;66684;47.568;18.734;2024-03-08T12:22:42;49.45;;;29.05;;
51758;SDS011;66684;47.568;18.734;2024-03-08T12:25:09;50.33;;;29.35;;
51758;SDS011;66684;47.568;18.734;2024-03-08T12:27:37;49.50;;;29.00;;
51758;SDS011;66684;47.568;18.734;2024-03-08T12:30:26;56.63;;;31.48;;
51758;SDS011;66684;47.568;18.734;2024-03-08T12:32:56;51.72;;;30.45;;
51758;SDS011;66684;47.568;18.734;2024-03-08T12:35:24;56.03;;;34.85;;
51758;SDS011;66684;47.568;18.734;2024-03-08T12:37:58;62.45;;;36.72;;
51758;SDS011;66684;47.568;18.734;2024-03-08T12:40:34;59.83;;;35.55;;
51758;SDS011;66684;47.568;18.734;2024-03-08T12:43:00;58.45;;;32.50;;
51758;SDS011;66684;47.568;18.734;2024-03-08T12:45:31;52.42;;;30.85;;
51758;SDS011;66684;47.568;18.734;2024-03-08T12:47:58;55.92;;;32.42;;
51758;SDS011;66684;47.568;18.734;2024-03-08T12:50:25;53.65;;;30.12;;
51758;SDS011;66684;47.568;18.734;2024-03-08T12:52:51;54.10;;;30.67;;
51758;SDS011;66684;47.568;18.734;2024-03-08T12:55:18;57.50;;;32.45;;
51758;SDS011;66684;47.568;18.734;2024-03-08T12:57:44;64.72;;;40.05;;
51758;SDS011;66684;47.568;18.734;2024-03-08T13:00:10;54.22;;;29.92;;
51758;SDS011;66684;47.568;18.734;2024-03-08T13:02:47;54.22;;;29.77;;
51758;SDS011;66684;47.568;18.734;2024-03-08T13:05:13;47.47;;;27.85;;
51758;SDS011;66684;47.568;18.734;2024-03-08T13:07:40;45.42;;;26.83;;
51758;SDS011;66684;47.568;18.734;2024-03-08T13:10:12;44.75;;;26.83;;
51758;SDS011;66684;47.568;18.734;2024-03-08T13:12:44;45.53;;;26.05;;
51758;SDS011;66684;47.568;18.734;2024-03-08T13:15:10;45.83;;;29.30;;
51758;SDS011;66684;47.568;18.734;2024-03-08T13:17:41;54.28;;;36.10;;
51758;SDS011;66684;47.568;18.734;2024-03-08T13:20:08;49.35;;;30.27;;
51758;SDS011;66684;47.568;18.734;2024-03-08T13:22:35;62.17;;;39.55;;
51758;SDS011;66684;47.568;18.734;2024-03-08T13:25:02;65.68;;;42.15;;
51758;SDS011;66684;47.568;18.734;2024-03-08T13:27:28;45.88;;;28.60;;
51758;SDS011;66684;47.568;18.734;2024-03-08T13:29:54;42.67;;;29.08;;
51758;SDS011;66684;47.568;18.734;2024-03-08T13:32:20;44.15;;;27.83;;
51758;SDS011;66684;47.568;18.734;2024-03-08T13:34:47;39.33;;;24.20;;
51758;SDS011;66684;47.568;18.734;2024-03-08T13:37:13;37.70;;;25.05;;
51758;SDS011;66684;47.568;18.734;2024-03-08T13:39:41;40.75;;;27.00;;
51758;SDS011;66684;47.568;18.734;2024-03-08T13:42:09;45.92;;;30.65;;
51758;SDS011;66684;47.568;18.734;2024-03-08T13:44:39;38.38;;;25.83;;
51758;SDS011;66684;47.568;18.734;2024-03-08T13:47:08;43.50;;;26.62;;
51758;SDS011;66684;47.568;18.734;2024-03-08T13:49:35;37.75;;;24.52;;
51758;SDS011;66684;47.568;18.734;2024-03-08T13:52:02;35.13;;;22.67;;
51758;SDS011;66684;47.568;18.734;2024-03-08T13:54:28;35.42;;;23.48;;
51758;SDS011;66684;47.568;18.734;2024-03-08T13:56:57;33.45;;;23.10;;
51758;SDS011;66684;47.568;18.734;2024-03-08T13:59:23;44.83;;;26.15;;
51758;SDS011;66684;47.568;18.734;2024-03-08T14:01:50;44.97;;;27.23;;
51758;SDS011;66684;47.568;18.734;2024-03-08T14:04:16;55.10;;;31.60;;
51758;SDS011;66684;47.568;18.734;2024-03-08T14:06:42;52.83;;;31.35;;
51758;SDS011;66684;47.568;18.734;2024-03-08T14:09:11;48.85;;;29.40;;
51758;SDS011;66684;47.568;18.734;2024-03-08T14:11:42;59.23;;;34.13;;
51758;SDS011;66684;47.568;18.734;2024-03-08T14:14:10;53.63;;;31.67;;